sensor_id;sensor_type;location;lat;lon;timestamp;P1;durP1;ratioP1;P2;durP2;ratioP2
38715;SDS011;24833;49.324;8.694;2023-03-04T00:00:29;9.23;;;5.43;;
38715;SDS011;24833;49.324;8.694;2023-03-04T00:02:56;9.45;;;5.57;;
38715;SDS011;24833;49.324;8.694;2023-03-04T00:05:23;10.13;;;5.63;;
38715;SDS011;24833;49.324;8.694;2023-03-04T00:07:50;10.02;;;6.43;;
38715;SDS011;24833;49.324;8.694;2023-03-04T00:10:17;7.95;;;5.68;;
38715;SDS011;24833;49.324;8.694;2023-03-04T00:12:44;9.15;;;6.13;;
38715;SDS011;24833;49.324;8.694;2023-03-04T00:15:11;10.60;;;5.95;;
38715;SDS011;24833;49.324;8.694;2023-03-04T00:17:38;10.07;;;6.43;;
38715;SDS011;24833;49.324;8.694;2023-03-04T00:20:05;11.00;;;6.47;;
38715;SDS011;24833;49.324;8.694;2023-03-04T00:22:34;12.40;;;6.72;;
38715;SDS011;24833;49.324;8.694;2023-03-04T00:25:01;9.45;;;6.10;;
38715;SDS011;24833;49.324;8.694;2023-03-04T00:27:28;9.27;;;6.25;;
38715;SDS011;24833;49.324;8.694;2023-03-04T00:29:55;10.73;;;6.07;;
38715;SDS011;24833;49.324;8.694;2023-03-04T00:32:23;9.90;;;6.07;;
38715;SDS011;24833;49.324;8.694;2023-03-04T00:34:50;9.85;;;5.63;;
38715;SDS011;24833;49.324;8.694;2023-03-04T00:37:17;10.10;;;6.70;;
38715;SDS011;24833;49.324;8.694;2023-03-04T00:39:44;10.38;;;6.05;;
38715;SDS011;24833;49.324;8.694;2023-03-04T00:42:11;10.35;;;5.45;;
38715;SDS011;24833;49.324;8.694;2023-03-04T00:44:38;9.25;;;5.55;;
38715;SDS011;24833;49.324;8.694;2023-03-04T00:47:05;9.57;;;6.10;;
38715;SDS011;24833;49.324;8.694;2023-03-04T00:49:32;10.18;;;5.93;;
38715;SDS011;24833;49.324;8.694;2023-03-04T00:51:59;9.40;;;5.85;;
38715;SDS011;24833;49.324;8.694;2023-03-04T00:54:26;10.00;;;5.78;;
38715;SDS011;24833;49.324;8.694;2023-03-04T00:56:53;9.13;;;5.82;;
38715;SDS011;24833;49.324;8.694;2023-03-04T00:59:20;7.30;;;5.35;;
38715;SDS011;24833;49.324;8.694;2023-03-04T01:01:47;9.82;;;5.40;;
38715;SDS011;24833;49.324;8.694;2023-03-04T01:04:16;8.88;;;5.90;;
38715;SDS011;24833;49.324;8.694;2023-03-04T01:06:43;11.63;;;6.20;;
38715;SDS011;24833;49.324;8.694;2023-03-04T01:09:10;10.52;;;6.65;;
38715;SDS011;24833;49.324;8.694;2023-03-04T01:11:39;11.95;;;6.47;;
38715;SDS011;24833;49.324;8.694;2023-03-04T01:14:06;10.15;;;6.28;;
38715;SDS011;24833;49.324;8.694;2023-03-04T01:16:33;9.05;;;6.30;;
38715;SDS011;24833;49.324;8.694;2023-03-04T01:19:01;9.85;;;6.25;;
38715;SDS011;24833;49.324;8.694;2023-03-04T01:21:28;10.63;;;6.88;;
38715;SDS011;24833;49.324;8.694;2023-03-04T01:23:56;7.57;;;4.93;;
38715;SDS011;24833;49.324;8.694;2023-03-04T01:26:23;11.65;;;6.38;;
38715;SDS011;24833;49.324;8.694;2023-03-04T01:28:50;9.20;;;6.18;;
38715;SDS011;24833;49.324;8.694;2023-03-04T01:31:17;11.52;;;6.38;;
38715;SDS011;24833;49.324;8.694;2023-03-04T01:33:44;9.50;;;6.35;;
38715;SDS011;24833;49.324;8.694;2023-03-04T01:36:12;10.60;;;6.43;;
38715;SDS011;24833;49.324;8.694;2023-03-04T01:38:39;9.57;;;6.07;;
38715;SDS011;24833;49.324;8.694;2023-03-04T01:41:06;9.38;;;6.13;;
38715;SDS011;24833;49.324;8.694;2023-03-04T01:43:34;9.55;;;5.90;;
38715;SDS011;24833;49.324;8.694;2023-03-04T01:46:03;9.50;;;6.10;;
38715;SDS011;24833;49.324;8.694;2023-03-04T01:48:35;11.55;;;6.13;;
38715;SDS011;24833;49.324;8.694;2023-03-04T01:51:03;15.15;;;5.90;;
38715;SDS011;24833;49.324;8.694;2023-03-04T01:53:32;9.38;;;5.90;;
38715;SDS011;24833;49.324;8.694;2023-03-04T01:56:00;9.23;;;5.93;;
38715;SDS011;24833;49.324;8.694;2023-03-04T01:58:37;11.80;;;6.93;;
38715;SDS011;24833;49.324;8.694;2023-03-04T02:01:04;10.07;;;6.47;;
38715;SDS011;24833;49.324;8.694;2023-03-04T02:03:31;8.90;;;5.82;;
38715;SDS011;24833;49.324;8.694;2023-03-04T02:05:59;8.77;;;6.13;;
38715;SDS011;24833;49.324;8.694;2023-03-04T02:08:26;10.52;;;5.32;;
38715;SDS011;24833;49.324;8.694;2023-03-04T02:10:55;9.32;;;5.78;;
38715;SDS011;24833;49.324;8.694;2023-03-04T02:13:22;11.35;;;6.25;;
38715;SDS011;24833;49.324;8.694;2023-03-04T02:15:50;9.10;;;6.47;;
38715;SDS011;24833;49.324;8.694;2023-03-04T02:18:22;10.77;;;6.63;;
38715;SDS011;24833;49.324;8.694;2023-03-04T02:26:52;8.77;;;5.97;;
38715;SDS011;24833;49.324;8.694;2023-03-04T02:29:19;10.82;;;5.75;;
38715;SDS011;24833;49.324;8.694;2023-03-04T02:31:48;8.80;;;5.85;;
38715;SDS011;24833;49.324;8.694;2023-03-04T02:36:49;9.90;;;6.00;;
38715;SDS011;24833;49.324;8.694;2023-03-04T02:41:47;9.93;;;7.00;;
38715;SDS011;24833;49.324;8.694;2023-03-04T02:44:20;10.73;;;6.22;;
38715;SDS011;24833;49.324;8.694;2023-03-04T02:46:57;10.32;;;6.25;;
38715;SDS011;24833;49.324;8.694;2023-03-04T02:49:25;11.35;;;6.85;;
38715;SDS011;24833;49.324;8.694;2023-03-04T02:52:01;12.05;;;7.38;;
38715;SDS011;24833;49.324;8.694;2023-03-04T02:54:47;10.88;;;7.00;;
38715;SDS011;24833;49.324;8.694;2023-03-04T02:57:15;11.48;;;7.10;;
38715;SDS011;24833;49.324;8.694;2023-03-04T02:59:46;11.35;;;6.97;;
38715;SDS011;24833;49.324;8.694;2023-03-04T03:04:44;9.98;;;6.03;;
38715;SDS011;24833;49.324;8.694;2023-03-04T03:07:14;11.60;;;6.82;;
38715;SDS011;24833;49.324;8.694;2023-03-04T03:09:41;11.23;;;6.80;;
38715;SDS011;24833;49.324;8.694;2023-03-04T03:12:09;12.77;;;7.15;;
38715;SDS011;24833;49.324;8.694;2023-03-04T03:14:36;11.18;;;7.18;;
38715;SDS011;24833;49.324;8.694;2023-03-04T03:17:04;10.13;;;6.57;;
38715;SDS011;24833;49.324;8.694;2023-03-04T03:19:31;10.60;;;6.13;;
38715;SDS011;24833;49.324;8.694;2023-03-04T03:22:01;12.80;;;7.55;;
38715;SDS011;24833;49.324;8.694;2023-03-04T03:24:28;9.93;;;6.47;;
38715;SDS011;24833;49.324;8.694;2023-03-04T03:26:55;11.68;;;6.97;;
38715;SDS011;24833;49.324;8.694;2023-03-04T03:29:22;9.98;;;6.22;;
38715;SDS011;24833;49.324;8.694;2023-03-04T03:31:49;11.00;;;5.85;;
38715;SDS011;24833;49.324;8.694;2023-03-04T03:34:18;10.77;;;7.28;;
38715;SDS011;24833;49.324;8.694;2023-03-04T03:36:46;11.48;;;6.95;;
38715;SDS011;24833;49.324;8.694;2023-03-04T03:39:13;10.18;;;6.53;;
38715;SDS011;24833;49.324;8.694;2023-03-04T03:41:41;11.63;;;6.93;;
38715;SDS011;24833;49.324;8.694;2023-03-04T03:44:07;9.80;;;6.05;;
38715;SDS011;24833;49.324;8.694;2023-03-04T03:46:34;11.75;;;6.63;;
38715;SDS011;24833;49.324;8.694;2023-03-04T03:49:01;9.65;;;6.10;;
38715;SDS011;24833;49.324;8.694;2023-03-04T03:51:28;12.77;;;6.60;;
38715;SDS011;24833;49.324;8.694;2023-03-04T03:53:55;9.10;;;6.20;;
38715;SDS011;24833;49.324;8.694;2023-03-04T03:56:22;13.85;;;7.30;;
38715;SDS011;24833;49.324;8.694;2023-03-04T03:58:49;10.05;;;6.38;;
38715;SDS011;24833;49.324;8.694;2023-03-04T04:01:16;10.05;;;6.07;;
38715;SDS011;24833;49.324;8.694;2023-03-04T04:03:43;10.52;;;6.43;;
38715;SDS011;24833;49.324;8.694;2023-03-04T04:06:10;9.10;;;5.72;;
38715;SDS011;24833;49.324;8.694;2023-03-04T04:08:37;11.77;;;6.10;;
38715;SDS011;24833;49.324;8.694;2023-03-04T04:11:04;11.07;;;6.85;;
38715;SDS011;24833;49.324;8.694;2023-03-04T04:13:31;12.60;;;7.60;;
38715;SDS011;24833;49.324;8.694;2023-03-04T04:15:58;11.20;;;6.82;;
38715;SDS011;24833;49.324;8.694;2023-03-04T04:18:25;14.00;;;7.47;;
38715;SDS011;24833;49.324;8.694;2023-03-04T04:20:53;12.40;;;6.55;;
38715;SDS011;24833;49.324;8.694;2023-03-04T04:23:20;10.73;;;6.68;;
38715;SDS011;24833;49.324;8.694;2023-03-04T04:25:47;12.20;;;7.40;;
38715;SDS011;24833;49.324;8.694;2023-03-04T04:28:14;10.88;;;7.05;;
38715;SDS011;24833;49.324;8.694;2023-03-04T04:30:41;10.23;;;6.43;;
38715;SDS011;24833;49.324;8.694;2023-03-04T04:33:08;10.65;;;6.57;;
38715;SDS011;24833;49.324;8.694;2023-03-04T04:35:35;10.07;;;6.30;;
38715;SDS011;24833;49.324;8.694;2023-03-04T04:38:04;10.65;;;6.82;;
38715;SDS011;24833;49.324;8.694;2023-03-04T04:40:33;12.38;;;7.28;;
38715;SDS011;24833;49.324;8.694;2023-03-04T04:43:00;13.45;;;7.63;;
38715;SDS011;24833;49.324;8.694;2023-03-04T04:45:27;14.07;;;7.47;;
38715;SDS011;24833;49.324;8.694;2023-03-04T04:47:54;13.00;;;7.68;;
38715;SDS011;24833;49.324;8.694;2023-03-04T04:50:23;12.70;;;7.45;;
38715;SDS011;24833;49.324;8.694;2023-03-04T04:52:50;10.55;;;7.07;;
38715;SDS011;24833;49.324;8.694;2023-03-04T04:55:17;11.38;;;7.18;;
38715;SDS011;24833;49.324;8.694;2023-03-04T04:57:44;13.75;;;7.30;;
38715;SDS011;24833;49.324;8.694;2023-03-04T05:00:11;13.60;;;8.02;;
38715;SDS011;24833;49.324;8.694;2023-03-04T05:02:39;11.40;;;6.88;;
38715;SDS011;24833;49.324;8.694;2023-03-04T05:05:06;12.70;;;7.32;;
38715;SDS011;24833;49.324;8.694;2023-03-04T05:07:33;13.82;;;8.05;;
38715;SDS011;24833;49.324;8.694;2023-03-04T05:10:00;11.05;;;7.28;;
38715;SDS011;24833;49.324;8.694;2023-03-04T05:12:28;11.45;;;6.95;;
38715;SDS011;24833;49.324;8.694;2023-03-04T05:14:55;13.65;;;7.95;;
38715;SDS011;24833;49.324;8.694;2023-03-04T05:17:22;11.75;;;7.53;;
38715;SDS011;24833;49.324;8.694;2023-03-04T05:19:49;11.57;;;7.22;;
38715;SDS011;24833;49.324;8.694;2023-03-04T05:22:16;11.90;;;7.35;;
38715;SDS011;24833;49.324;8.694;2023-03-04T05:24:43;13.07;;;7.10;;
38715;SDS011;24833;49.324;8.694;2023-03-04T05:27:10;12.88;;;7.57;;
38715;SDS011;24833;49.324;8.694;2023-03-04T05:29:37;13.75;;;8.43;;
38715;SDS011;24833;49.324;8.694;2023-03-04T05:32:04;13.38;;;8.13;;
38715;SDS011;24833;49.324;8.694;2023-03-04T05:34:31;14.68;;;8.13;;
38715;SDS011;24833;49.324;8.694;2023-03-04T05:36:58;13.48;;;8.52;;
38715;SDS011;24833;49.324;8.694;2023-03-04T05:39:25;13.45;;;7.32;;
38715;SDS011;24833;49.324;8.694;2023-03-04T05:41:52;13.50;;;7.45;;
38715;SDS011;24833;49.324;8.694;2023-03-04T05:44:19;14.40;;;8.30;;
38715;SDS011;24833;49.324;8.694;2023-03-04T05:46:46;12.40;;;7.00;;
38715;SDS011;24833;49.324;8.694;2023-03-04T05:49:13;13.80;;;8.00;;
38715;SDS011;24833;49.324;8.694;2023-03-04T05:51:40;13.65;;;7.90;;
38715;SDS011;24833;49.324;8.694;2023-03-04T05:54:07;13.23;;;8.27;;
38715;SDS011;24833;49.324;8.694;2023-03-04T05:56:34;18.70;;;11.25;;
38715;SDS011;24833;49.324;8.694;2023-03-04T05:59:01;17.80;;;11.20;;
38715;SDS011;24833;49.324;8.694;2023-03-04T06:01:28;20.20;;;10.93;;
38715;SDS011;24833;49.324;8.694;2023-03-04T06:03:56;19.75;;;10.13;;
38715;SDS011;24833;49.324;8.694;2023-03-04T06:06:23;17.75;;;10.48;;
38715;SDS011;24833;49.324;8.694;2023-03-04T06:08:50;15.27;;;9.32;;
38715;SDS011;24833;49.324;8.694;2023-03-04T06:11:17;19.25;;;10.27;;
38715;SDS011;24833;49.324;8.694;2023-03-04T06:13:44;20.70;;;10.57;;
38715;SDS011;24833;49.324;8.694;2023-03-04T06:16:11;18.90;;;10.00;;
38715;SDS011;24833;49.324;8.694;2023-03-04T06:18:38;15.68;;;9.90;;
38715;SDS011;24833;49.324;8.694;2023-03-04T06:21:05;17.00;;;10.30;;
38715;SDS011;24833;49.324;8.694;2023-03-04T06:23:32;19.88;;;11.27;;
38715;SDS011;24833;49.324;8.694;2023-03-04T06:25:59;21.65;;;12.25;;
38715;SDS011;24833;49.324;8.694;2023-03-04T06:28:27;26.13;;;12.75;;
38715;SDS011;24833;49.324;8.694;2023-03-04T06:30:55;25.35;;;13.23;;
38715;SDS011;24833;49.324;8.694;2023-03-04T06:33:23;23.23;;;13.93;;
38715;SDS011;24833;49.324;8.694;2023-03-04T06:35:55;28.55;;;15.32;;
38715;SDS011;24833;49.324;8.694;2023-03-04T06:38:23;26.45;;;14.70;;
38715;SDS011;24833;49.324;8.694;2023-03-04T06:40:51;28.10;;;14.77;;
38715;SDS011;24833;49.324;8.694;2023-03-04T06:43:22;25.80;;;14.05;;
38715;SDS011;24833;49.324;8.694;2023-03-04T06:45:49;28.88;;;13.93;;
38715;SDS011;24833;49.324;8.694;2023-03-04T06:48:16;24.15;;;13.55;;
38715;SDS011;24833;49.324;8.694;2023-03-04T06:50:43;27.20;;;15.15;;
38715;SDS011;24833;49.324;8.694;2023-03-04T06:53:10;28.23;;;14.38;;
38715;SDS011;24833;49.324;8.694;2023-03-04T06:55:37;26.55;;;14.88;;
38715;SDS011;24833;49.324;8.694;2023-03-04T06:58:04;24.13;;;14.27;;
38715;SDS011;24833;49.324;8.694;2023-03-04T07:00:31;24.98;;;14.25;;
38715;SDS011;24833;49.324;8.694;2023-03-04T07:02:58;23.73;;;13.77;;
38715;SDS011;24833;49.324;8.694;2023-03-04T07:05:25;26.67;;;13.43;;
38715;SDS011;24833;49.324;8.694;2023-03-04T07:07:52;22.48;;;12.38;;
38715;SDS011;24833;49.324;8.694;2023-03-04T07:10:19;21.80;;;12.35;;
38715;SDS011;24833;49.324;8.694;2023-03-04T07:12:46;21.77;;;12.55;;
38715;SDS011;24833;49.324;8.694;2023-03-04T07:15:13;21.27;;;12.10;;
38715;SDS011;24833;49.324;8.694;2023-03-04T07:17:40;22.63;;;12.98;;
38715;SDS011;24833;49.324;8.694;2023-03-04T07:20:08;21.10;;;12.85;;
38715;SDS011;24833;49.324;8.694;2023-03-04T07:22:35;24.27;;;12.77;;
38715;SDS011;24833;49.324;8.694;2023-03-04T07:25:03;24.45;;;12.38;;
38715;SDS011;24833;49.324;8.694;2023-03-04T07:27:31;25.88;;;13.25;;
38715;SDS011;24833;49.324;8.694;2023-03-04T07:29:58;23.00;;;13.38;;
38715;SDS011;24833;49.324;8.694;2023-03-04T07:32:25;28.90;;;15.38;;
38715;SDS011;24833;49.324;8.694;2023-03-04T07:34:52;28.35;;;15.23;;
38715;SDS011;24833;49.324;8.694;2023-03-04T07:37:19;30.00;;;15.88;;
38715;SDS011;24833;49.324;8.694;2023-03-04T07:39:46;27.95;;;15.27;;
38715;SDS011;24833;49.324;8.694;2023-03-04T07:42:13;29.15;;;15.00;;
38715;SDS011;24833;49.324;8.694;2023-03-04T07:44:49;30.55;;;15.63;;
38715;SDS011;24833;49.324;8.694;2023-03-04T07:47:16;32.17;;;17.60;;
38715;SDS011;24833;49.324;8.694;2023-03-04T07:49:43;31.10;;;18.23;;
38715;SDS011;24833;49.324;8.694;2023-03-04T07:52:10;33.70;;;17.90;;
38715;SDS011;24833;49.324;8.694;2023-03-04T07:54:39;29.58;;;15.95;;
38715;SDS011;24833;49.324;8.694;2023-03-04T07:57:06;32.53;;;16.83;;
38715;SDS011;24833;49.324;8.694;2023-03-04T07:59:33;28.98;;;16.83;;
38715;SDS011;24833;49.324;8.694;2023-03-04T08:02:00;32.13;;;16.58;;
38715;SDS011;24833;49.324;8.694;2023-03-04T08:04:27;31.40;;;18.27;;
38715;SDS011;24833;49.324;8.694;2023-03-04T08:06:54;30.23;;;16.52;;
38715;SDS011;24833;49.324;8.694;2023-03-04T08:09:21;29.55;;;16.80;;
38715;SDS011;24833;49.324;8.694;2023-03-04T08:11:48;33.38;;;17.38;;
38715;SDS011;24833;49.324;8.694;2023-03-04T08:14:15;35.33;;;17.45;;
38715;SDS011;24833;49.324;8.694;2023-03-04T08:16:42;38.08;;;18.92;;
38715;SDS011;24833;49.324;8.694;2023-03-04T08:19:09;31.20;;;16.33;;
38715;SDS011;24833;49.324;8.694;2023-03-04T08:21:37;29.75;;;16.80;;
38715;SDS011;24833;49.324;8.694;2023-03-04T08:24:04;30.95;;;17.27;;
38715;SDS011;24833;49.324;8.694;2023-03-04T08:26:36;33.55;;;16.80;;
38715;SDS011;24833;49.324;8.694;2023-03-04T08:29:10;28.85;;;15.73;;
38715;SDS011;24833;49.324;8.694;2023-03-04T08:31:41;33.63;;;17.83;;
38715;SDS011;24833;49.324;8.694;2023-03-04T08:34:13;27.33;;;15.95;;
38715;SDS011;24833;49.324;8.694;2023-03-04T08:36:40;31.00;;;17.13;;
38715;SDS011;24833;49.324;8.694;2023-03-04T08:39:10;35.28;;;17.80;;
38715;SDS011;24833;49.324;8.694;2023-03-04T08:41:39;34.22;;;18.17;;
38715;SDS011;24833;49.324;8.694;2023-03-04T08:44:07;34.22;;;17.20;;
38715;SDS011;24833;49.324;8.694;2023-03-04T08:46:36;31.02;;;17.38;;
38715;SDS011;24833;49.324;8.694;2023-03-04T08:49:04;33.08;;;18.35;;
38715;SDS011;24833;49.324;8.694;2023-03-04T08:51:32;33.83;;;16.63;;
38715;SDS011;24833;49.324;8.694;2023-03-04T08:54:04;36.78;;;18.98;;
38715;SDS011;24833;49.324;8.694;2023-03-04T08:56:31;33.88;;;19.05;;
38715;SDS011;24833;49.324;8.694;2023-03-04T08:58:58;34.28;;;19.23;;
38715;SDS011;24833;49.324;8.694;2023-03-04T09:01:25;34.63;;;17.58;;
38715;SDS011;24833;49.324;8.694;2023-03-04T09:03:52;36.10;;;19.00;;
38715;SDS011;24833;49.324;8.694;2023-03-04T09:06:20;39.15;;;19.92;;
38715;SDS011;24833;49.324;8.694;2023-03-04T09:08:47;34.15;;;19.02;;
38715;SDS011;24833;49.324;8.694;2023-03-04T09:11:14;38.85;;;19.58;;
38715;SDS011;24833;49.324;8.694;2023-03-04T09:13:41;33.63;;;18.45;;
38715;SDS011;24833;49.324;8.694;2023-03-04T09:16:09;37.78;;;19.48;;
38715;SDS011;24833;49.324;8.694;2023-03-04T09:18:38;33.38;;;18.67;;
38715;SDS011;24833;49.324;8.694;2023-03-04T09:21:06;38.42;;;19.38;;
38715;SDS011;24833;49.324;8.694;2023-03-04T09:23:35;37.90;;;18.88;;
38715;SDS011;24833;49.324;8.694;2023-03-04T09:26:16;39.92;;;20.52;;
38715;SDS011;24833;49.324;8.694;2023-03-04T09:28:51;33.72;;;18.40;;
38715;SDS011;24833;49.324;8.694;2023-03-04T09:31:20;33.83;;;19.00;;
38715;SDS011;24833;49.324;8.694;2023-03-04T09:33:47;34.42;;;19.55;;
38715;SDS011;24833;49.324;8.694;2023-03-04T09:36:17;38.47;;;20.48;;
38715;SDS011;24833;49.324;8.694;2023-03-04T09:38:45;39.42;;;19.60;;
38715;SDS011;24833;49.324;8.694;2023-03-04T09:41:16;38.05;;;19.92;;
38715;SDS011;24833;49.324;8.694;2023-03-04T09:44:14;35.95;;;18.52;;
38715;SDS011;24833;49.324;8.694;2023-03-04T09:46:55;35.05;;;18.15;;
38715;SDS011;24833;49.324;8.694;2023-03-04T09:49:26;35.83;;;18.85;;
38715;SDS011;24833;49.324;8.694;2023-03-04T09:57:49;42.00;;;20.83;;
38715;SDS011;24833;49.324;8.694;2023-03-04T10:00:33;37.65;;;20.23;;
38715;SDS011;24833;49.324;8.694;2023-03-04T10:03:19;37.65;;;19.52;;
38715;SDS011;24833;49.324;8.694;2023-03-04T10:06:03;39.42;;;19.88;;
38715;SDS011;24833;49.324;8.694;2023-03-04T10:11:31;35.35;;;20.13;;
38715;SDS011;24833;49.324;8.694;2023-03-04T10:19:29;38.30;;;20.85;;
38715;SDS011;24833;49.324;8.694;2023-03-04T10:21:57;38.95;;;20.05;;
38715;SDS011;24833;49.324;8.694;2023-03-04T10:24:28;36.33;;;20.25;;
38715;SDS011;24833;49.324;8.694;2023-03-04T10:29:31;34.28;;;18.75;;
38715;SDS011;24833;49.324;8.694;2023-03-04T10:31:59;36.83;;;19.20;;
38715;SDS011;24833;49.324;8.694;2023-03-04T10:34:26;38.70;;;20.90;;
38715;SDS011;24833;49.324;8.694;2023-03-04T10:37:05;41.22;;;20.48;;
38715;SDS011;24833;49.324;8.694;2023-03-04T10:39:38;40.70;;;21.63;;
38715;SDS011;24833;49.324;8.694;2023-03-04T10:42:21;36.70;;;18.73;;
38715;SDS011;24833;49.324;8.694;2023-03-04T10:44:54;35.78;;;18.73;;
38715;SDS011;24833;49.324;8.694;2023-03-04T10:47:28;37.97;;;20.65;;
38715;SDS011;24833;49.324;8.694;2023-03-04T10:49:58;35.47;;;19.77;;
38715;SDS011;24833;49.324;8.694;2023-03-04T10:52:32;36.10;;;20.83;;
38715;SDS011;24833;49.324;8.694;2023-03-04T10:55:17;38.17;;;20.60;;
38715;SDS011;24833;49.324;8.694;2023-03-04T10:57:48;35.13;;;20.27;;
38715;SDS011;24833;49.324;8.694;2023-03-04T11:00:24;38.97;;;21.50;;
38715;SDS011;24833;49.324;8.694;2023-03-04T11:06:05;36.88;;;21.05;;
38715;SDS011;24833;49.324;8.694;2023-03-04T11:08:52;36.17;;;21.38;;
38715;SDS011;24833;49.324;8.694;2023-03-04T11:11:31;37.42;;;20.45;;
38715;SDS011;24833;49.324;8.694;2023-03-04T11:16:51;33.05;;;20.35;;
38715;SDS011;24833;49.324;8.694;2023-03-04T11:19:34;34.67;;;21.02;;
38715;SDS011;24833;49.324;8.694;2023-03-04T11:22:05;35.20;;;19.83;;
38715;SDS011;24833;49.324;8.694;2023-03-04T11:24:33;30.10;;;18.55;;
38715;SDS011;24833;49.324;8.694;2023-03-04T11:27:07;37.42;;;20.70;;
38715;SDS011;24833;49.324;8.694;2023-03-04T11:29:50;33.40;;;19.27;;
38715;SDS011;24833;49.324;8.694;2023-03-04T11:32:30;33.40;;;19.73;;
38715;SDS011;24833;49.324;8.694;2023-03-04T11:35:23;35.70;;;20.08;;
38715;SDS011;24833;49.324;8.694;2023-03-04T11:38:05;36.63;;;20.17;;
38715;SDS011;24833;49.324;8.694;2023-03-04T11:41:00;34.55;;;19.65;;
38715;SDS011;24833;49.324;8.694;2023-03-04T11:43:38;33.50;;;19.15;;
38715;SDS011;24833;49.324;8.694;2023-03-04T11:49:26;34.05;;;19.70;;
38715;SDS011;24833;49.324;8.694;2023-03-04T11:54:34;36.33;;;19.35;;
38715;SDS011;24833;49.324;8.694;2023-03-04T12:06:05;30.70;;;18.08;;
38715;SDS011;24833;49.324;8.694;2023-03-04T12:14:22;25.65;;;14.82;;
38715;SDS011;24833;49.324;8.694;2023-03-04T12:17:17;27.45;;;16.50;;
38715;SDS011;24833;49.324;8.694;2023-03-04T12:23:25;28.25;;;16.00;;
38715;SDS011;24833;49.324;8.694;2023-03-04T12:40:01;24.70;;;14.93;;
38715;SDS011;24833;49.324;8.694;2023-03-04T12:46:07;24.80;;;14.85;;
38715;SDS011;24833;49.324;8.694;2023-03-04T12:54:36;26.25;;;16.33;;
38715;SDS011;24833;49.324;8.694;2023-03-04T13:14:03;22.58;;;12.30;;
38715;SDS011;24833;49.324;8.694;2023-03-04T13:16:47;19.63;;;11.77;;
38715;SDS011;24833;49.324;8.694;2023-03-04T13:28:17;17.23;;;10.10;;
38715;SDS011;24833;49.324;8.694;2023-03-04T13:40:29;15.60;;;11.13;;
38715;SDS011;24833;49.324;8.694;2023-03-04T13:45:51;20.40;;;11.00;;
38715;SDS011;24833;49.324;8.694;2023-03-04T13:48:23;20.63;;;11.98;;
38715;SDS011;24833;49.324;8.694;2023-03-04T13:51:02;17.50;;;11.63;;
38715;SDS011;24833;49.324;8.694;2023-03-04T13:53:33;18.65;;;11.63;;
38715;SDS011;24833;49.324;8.694;2023-03-04T13:56:10;17.55;;;11.10;;
38715;SDS011;24833;49.324;8.694;2023-03-04T14:01:33;18.30;;;11.32;;
38715;SDS011;24833;49.324;8.694;2023-03-04T14:04:39;17.27;;;10.85;;
38715;SDS011;24833;49.324;8.694;2023-03-04T14:07:02;16.50;;;11.07;;
38715;SDS011;24833;49.324;8.694;2023-03-04T14:09:58;20.70;;;10.75;;
38715;SDS011;24833;49.324;8.694;2023-03-04T14:12:26;18.40;;;10.98;;
38715;SDS011;24833;49.324;8.694;2023-03-04T14:14:56;18.42;;;10.23;;
38715;SDS011;24833;49.324;8.694;2023-03-04T14:17:34;16.73;;;11.30;;
38715;SDS011;24833;49.324;8.694;2023-03-04T14:20:03;21.95;;;11.43;;
38715;SDS011;24833;49.324;8.694;2023-03-04T14:23:02;15.85;;;9.93;;
38715;SDS011;24833;49.324;8.694;2023-03-04T14:25:48;19.77;;;10.65;;
38715;SDS011;24833;49.324;8.694;2023-03-04T14:28:16;18.45;;;10.32;;
38715;SDS011;24833;49.324;8.694;2023-03-04T14:30:52;20.88;;;10.75;;
38715;SDS011;24833;49.324;8.694;2023-03-04T14:33:27;16.48;;;11.07;;
38715;SDS011;24833;49.324;8.694;2023-03-04T14:35:56;16.88;;;10.70;;
38715;SDS011;24833;49.324;8.694;2023-03-04T14:44:02;14.90;;;9.45;;
38715;SDS011;24833;49.324;8.694;2023-03-04T14:46:55;19.33;;;10.88;;
38715;SDS011;24833;49.324;8.694;2023-03-04T14:49:37;19.80;;;9.88;;
38715;SDS011;24833;49.324;8.694;2023-03-04T14:52:05;17.42;;;11.50;;
38715;SDS011;24833;49.324;8.694;2023-03-04T14:59:55;18.05;;;12.18;;
38715;SDS011;24833;49.324;8.694;2023-03-04T15:05:08;17.90;;;11.85;;
38715;SDS011;24833;49.324;8.694;2023-03-04T15:07:59;19.48;;;11.60;;
38715;SDS011;24833;49.324;8.694;2023-03-04T15:10:36;21.63;;;12.25;;
38715;SDS011;24833;49.324;8.694;2023-03-04T15:13:05;18.55;;;11.15;;
38715;SDS011;24833;49.324;8.694;2023-03-04T15:15:38;21.73;;;11.63;;
38715;SDS011;24833;49.324;8.694;2023-03-04T15:21:02;18.10;;;11.73;;
38715;SDS011;24833;49.324;8.694;2023-03-04T15:23:52;21.10;;;11.93;;
38715;SDS011;24833;49.324;8.694;2023-03-04T15:26:19;18.50;;;10.95;;
38715;SDS011;24833;49.324;8.694;2023-03-04T15:28:46;17.88;;;11.60;;
38715;SDS011;24833;49.324;8.694;2023-03-04T15:31:14;18.92;;;11.32;;
38715;SDS011;24833;49.324;8.694;2023-03-04T15:33:45;16.20;;;11.10;;
38715;SDS011;24833;49.324;8.694;2023-03-04T15:36:14;21.60;;;12.32;;
38715;SDS011;24833;49.324;8.694;2023-03-04T15:38:46;24.17;;;11.73;;
38715;SDS011;24833;49.324;8.694;2023-03-04T15:41:23;22.38;;;12.00;;
38715;SDS011;24833;49.324;8.694;2023-03-04T15:43:52;23.92;;;13.00;;
38715;SDS011;24833;49.324;8.694;2023-03-04T15:46:20;20.05;;;11.50;;
38715;SDS011;24833;49.324;8.694;2023-03-04T15:48:47;20.25;;;12.07;;
38715;SDS011;24833;49.324;8.694;2023-03-04T15:51:17;24.27;;;12.55;;
38715;SDS011;24833;49.324;8.694;2023-03-04T15:53:54;18.48;;;11.90;;
38715;SDS011;24833;49.324;8.694;2023-03-04T15:56:25;24.05;;;13.45;;
38715;SDS011;24833;49.324;8.694;2023-03-04T15:59:02;23.10;;;12.95;;
38715;SDS011;24833;49.324;8.694;2023-03-04T16:01:36;21.75;;;12.25;;
38715;SDS011;24833;49.324;8.694;2023-03-04T16:04:03;17.95;;;11.52;;
38715;SDS011;24833;49.324;8.694;2023-03-04T16:06:31;18.85;;;12.43;;
38715;SDS011;24833;49.324;8.694;2023-03-04T16:08:58;24.67;;;13.18;;
38715;SDS011;24833;49.324;8.694;2023-03-04T16:11:27;21.05;;;12.23;;
38715;SDS011;24833;49.324;8.694;2023-03-04T16:13:57;23.88;;;13.40;;
38715;SDS011;24833;49.324;8.694;2023-03-04T16:16:24;20.45;;;13.30;;
38715;SDS011;24833;49.324;8.694;2023-03-04T16:18:51;26.70;;;13.60;;
38715;SDS011;24833;49.324;8.694;2023-03-04T16:21:19;22.23;;;12.85;;
38715;SDS011;24833;49.324;8.694;2023-03-04T16:23:50;24.40;;;12.85;;
38715;SDS011;24833;49.324;8.694;2023-03-04T16:26:20;21.23;;;11.63;;
38715;SDS011;24833;49.324;8.694;2023-03-04T16:28:50;19.75;;;12.13;;
38715;SDS011;24833;49.324;8.694;2023-03-04T16:31:20;19.63;;;12.07;;
38715;SDS011;24833;49.324;8.694;2023-03-04T16:33:47;20.40;;;11.65;;
38715;SDS011;24833;49.324;8.694;2023-03-04T16:36:15;19.92;;;11.77;;
38715;SDS011;24833;49.324;8.694;2023-03-04T16:38:47;21.05;;;12.57;;
38715;SDS011;24833;49.324;8.694;2023-03-04T16:41:15;23.33;;;12.13;;
38715;SDS011;24833;49.324;8.694;2023-03-04T16:43:51;22.67;;;12.52;;
38715;SDS011;24833;49.324;8.694;2023-03-04T16:46:21;22.30;;;12.80;;
38715;SDS011;24833;49.324;8.694;2023-03-04T16:48:48;21.67;;;11.60;;
38715;SDS011;24833;49.324;8.694;2023-03-04T16:51:16;18.83;;;11.48;;
38715;SDS011;24833;49.324;8.694;2023-03-04T16:53:50;21.48;;;12.52;;
38715;SDS011;24833;49.324;8.694;2023-03-04T16:56:21;21.70;;;13.35;;
38715;SDS011;24833;49.324;8.694;2023-03-04T16:58:49;24.77;;;14.13;;
38715;SDS011;24833;49.324;8.694;2023-03-04T17:03:51;23.85;;;14.27;;
38715;SDS011;24833;49.324;8.694;2023-03-04T17:06:19;25.40;;;14.68;;
38715;SDS011;24833;49.324;8.694;2023-03-04T17:08:46;26.02;;;14.23;;